Time;durP1;ratioP1;P1;durP2;ratioP2;P2;SDS_P1;SDS_P2;PMS_P1;PMS_P2;Temp;Humidity;BMP_temperature;BMP_pressure;BME280_temperature;BME280_humidity;BME280_pressure;Samples;Min_cycle;Max_cycle;Signal;HPM_P1;HPM_P2
2022/11/20 00:01:11;;;;;;;49.38;29.58;;;-3.20;99.90;;;;;;5078257;28;20035;-29
2022/11/20 00:03:37;;;;;;;45.67;27.25;;;-3.20;99.90;;;;;;5074353;28;20158;-31
2022/11/20 00:06:05;;;;;;;41.15;26.05;;;-3.20;99.90;;;;;;5072780;28;20096;-28
2022/11/20 00:08:31;;;;;;;40.78;25.23;;;-3.20;99.90;;;;;;5073084;28;20040;-28
2022/11/20 00:10:57;;;;;;;43.80;26.88;;;-3.20;99.90;;;;;;5066427;28;20417;-28
2022/11/20 00:13:23;;;;;;;38.97;25.50;;;-3.20;99.90;;;;;;5068689;28;20028;-28
2022/11/20 00:15:56;;;;;;;40.55;25.17;;;-3.20;99.90;;;;;;5073482;28;20043;-29
2022/11/20 00:18:21;;;;;;;38.27;24.73;;;-3.20;99.90;;;;;;5066513;28;20041;-30
2022/11/20 00:20:47;;;;;;;38.35;24.65;;;-3.20;99.90;;;;;;5070037;28;20448;-30
2022/11/20 00:23:13;;;;;;;39.25;24.08;;;-3.20;99.90;;;;;;5052706;28;20033;-29
2022/11/20 00:25:38;;;;;;;40.45;23.30;;;-3.10;99.90;;;;;;5096240;28;20174;-28
2022/11/20 00:28:04;;;;;;;34.92;21.30;;;-3.10;99.90;;;;;;5078089;28;20090;-29
2022/11/20 00:30:30;;;;;;;31.85;19.15;;;-3.00;99.90;;;;;;5052640;28;20044;-28
2022/11/20 00:32:57;;;;;;;30.48;17.98;;;-2.90;99.90;;;;;;5061525;28;20036;-28
2022/11/20 00:35:23;;;;;;;27.67;17.02;;;-2.90;99.90;;;;;;5070224;28;20044;-28
2022/11/20 00:37:48;;;;;;;27.02;17.05;;;-2.80;99.90;;;;;;5072281;28;20089;-31
2022/11/20 00:40:14;;;;;;;35.90;18.13;;;-2.70;99.90;;;;;;5058984;28;20051;-28
2022/11/20 00:42:40;;;;;;;29.35;17.67;;;-2.60;99.90;;;;;;5066831;28;20441;-31
2022/11/20 00:45:06;;;;;;;29.15;17.35;;;-2.60;99.90;;;;;;5069785;28;20036;-28
2022/11/20 00:47:32;;;;;;;36.20;20.30;;;-2.50;99.90;;;;;;5061993;28;20470;-31
2022/11/20 00:49:58;;;;;;;31.00;18.05;;;-2.50;99.90;;;;;;5066338;28;20126;-29
2022/11/20 00:52:23;;;;;;;32.60;18.92;;;-2.50;99.90;;;;;;5073671;28;20071;-30
2022/11/20 00:54:49;;;;;;;37.08;18.90;;;-2.40;99.90;;;;;;5080186;28;20389;-29
2022/11/20 00:57:15;;;;;;;33.42;18.70;;;-2.40;99.90;;;;;;5066820;28;20409;-29
2022/11/20 00:59:41;;;;;;;29.58;17.35;;;-2.40;99.90;;;;;;5083959;28;20036;-30
2022/11/20 01:02:06;;;;;;;32.83;18.17;;;-2.30;99.90;;;;;;5074893;28;20033;-30
2022/11/20 01:04:32;;;;;;;33.10;18.45;;;-2.30;99.90;;;;;;5070174;28;20433;-29
2022/11/20 01:06:57;;;;;;;31.77;18.98;;;-2.30;99.90;;;;;;5071643;28;20121;-29
2022/11/20 01:09:23;;;;;;;25.02;16.55;;;-2.30;99.90;;;;;;5066072;28;20048;-32
2022/11/20 01:11:49;;;;;;;31.33;17.40;;;-2.20;99.90;;;;;;5066077;28;20124;-29
2022/11/20 01:14:17;;;;;;;29.35;17.33;;;-2.10;99.90;;;;;;5078119;28;20394;-28
2022/11/20 01:16:46;;;;;;;24.52;15.73;;;-2.10;99.90;;;;;;5068594;28;20039;-29
2022/11/20 01:19:23;;;;;;;31.63;17.33;;;-2.10;99.90;;;;;;5070536;28;20148;-28
2022/11/20 01:21:51;;;;;;;30.65;19.20;;;-2.00;99.90;;;;;;5071661;28;20482;-29
2022/11/20 01:24:18;;;;;;;23.60;16.20;;;-1.90;99.90;;;;;;5070421;28;20348;-29
2022/11/20 01:26:47;;;;;;;31.05;18.45;;;-1.90;99.90;;;;;;5071452;28;20040;-29
2022/11/20 01:29:15;;;;;;;27.40;17.27;;;-1.80;99.90;;;;;;5071254;28;20080;-28
2022/11/20 01:31:42;;;;;;;30.55;18.02;;;-1.90;99.90;;;;;;5086256;28;20082;-29
2022/11/20 01:34:13;;;;;;;26.02;17.75;;;-1.90;99.90;;;;;;5059025;28;20041;-28
2022/11/20 01:36:40;;;;;;;27.75;17.83;;;-1.80;99.90;;;;;;5075088;28;20033;-28
2022/11/20 01:39:13;;;;;;;28.42;17.38;;;-1.80;99.90;;;;;;5067095;28;20545;-30
2022/11/20 01:44:56;;;;;;;22.23;15.55;;;-1.80;99.90;;;;;;5072310;28;20395;-29
2022/11/20 01:47:37;;;;;;;27.27;16.88;;;-1.80;99.90;;;;;;5071183;28;20066;-29
2022/11/20 01:50:10;;;;;;;28.70;18.13;;;-1.70;99.90;;;;;;5063671;28;20040;-29
2022/11/20 01:52:48;;;;;;;26.15;18.17;;;-1.70;99.90;;;;;;5085813;28;20550;-29
2022/11/20 01:55:19;;;;;;;23.27;16.02;;;-1.70;99.90;;;;;;5082208;28;20563;-29
2022/11/20 01:57:46;;;;;;;23.70;16.38;;;-1.60;99.90;;;;;;5071063;28;20394;-29
2022/11/20 02:00:15;;;;;;;28.08;16.90;;;-1.60;99.90;;;;;;5067069;28;20044;-30
2022/11/20 02:03:05;;;;;;;26.38;17.80;;;-1.60;99.90;;;;;;5066556;28;20033;-31
2022/11/20 02:05:35;;;;;;;24.25;15.85;;;-1.50;99.90;;;;;;5055230;28;20040;-29
2022/11/20 02:08:03;;;;;;;20.98;15.23;;;-1.50;99.90;;;;;;5073248;28;20072;-29
2022/11/20 02:10:29;;;;;;;19.80;15.02;;;-1.50;99.90;;;;;;5068580;28;20105;-29
2022/11/20 02:15:40;;;;;;;25.25;17.02;;;-1.50;99.90;;;;;;5069130;28;20081;-31
2022/11/20 02:18:07;;;;;;;23.88;14.73;;;-1.40;99.90;;;;;;5072169;28;20470;-27
2022/11/20 02:20:33;;;;;;;21.95;15.48;;;-1.40;99.90;;;;;;5069699;28;20051;-27
2022/11/20 02:23:13;;;;;;;22.08;15.70;;;-1.40;99.90;;;;;;5078411;28;20111;-27
2022/11/20 02:25:40;;;;;;;24.00;14.77;;;-1.30;99.90;;;;;;5068113;28;20347;-29
2022/11/20 02:28:06;;;;;;;22.67;16.15;;;-1.30;99.90;;;;;;5075522;28;20557;-29
2022/11/20 02:30:32;;;;;;;23.05;15.95;;;-1.30;99.90;;;;;;5060819;28;20119;-27
2022/11/20 02:32:58;;;;;;;23.00;15.77;;;-1.30;99.90;;;;;;5069152;28;20032;-30
2022/11/20 02:35:24;;;;;;;21.25;15.00;;;-1.30;99.90;;;;;;5076631;28;20037;-29
2022/11/20 02:37:55;;;;;;;19.48;13.90;;;-1.20;99.90;;;;;;5070344;28;20043;-29
2022/11/20 02:40:21;;;;;;;23.17;15.90;;;-1.20;99.90;;;;;;5057997;28;20045;-28
2022/11/20 02:42:47;;;;;;;22.42;15.60;;;-1.10;99.90;;;;;;5054039;28;20054;-29
2022/11/20 02:45:13;;;;;;;22.85;15.23;;;-1.10;99.90;;;;;;5071904;28;20119;-28
2022/11/20 02:47:39;;;;;;;22.00;14.95;;;-1.10;99.90;;;;;;5067935;28;20036;-28
2022/11/20 02:50:06;;;;;;;20.20;14.80;;;-1.10;99.90;;;;;;5070271;28;20207;-29
2022/11/20 02:52:32;;;;;;;21.48;15.25;;;-1.10;99.90;;;;;;5078758;28;20482;-32
2022/11/20 02:54:58;;;;;;;23.73;15.23;;;-1.10;99.90;;;;;;5064647;28;20037;-31
2022/11/20 02:57:23;;;;;;;20.08;13.98;;;-1.00;99.90;;;;;;5059434;28;20052;-30
2022/11/20 02:59:49;;;;;;;21.50;14.52;;;-1.00;99.90;;;;;;5078708;28;20123;-29
2022/11/20 03:02:15;;;;;;;22.23;14.45;;;-1.00;99.90;;;;;;5082160;28;20394;-28
2022/11/20 03:04:41;;;;;;;23.58;15.52;;;-0.90;99.90;;;;;;5073152;28;20086;-27
2022/11/20 03:07:07;;;;;;;22.80;15.93;;;-1.00;99.90;;;;;;5077423;28;20538;-29
2022/11/20 03:09:33;;;;;;;22.55;14.57;;;-1.00;99.90;;;;;;5080393;28;20119;-27
2022/11/20 03:11:59;;;;;;;28.88;15.70;;;-1.00;99.90;;;;;;5084522;28;20520;-28
2022/11/20 03:14:25;;;;;;;24.83;15.75;;;-1.00;99.90;;;;;;5082017;28;20459;-27
2022/11/20 03:16:50;;;;;;;22.00;14.57;;;-1.00;99.90;;;;;;5081951;28;20028;-28
2022/11/20 03:19:16;;;;;;;23.38;15.13;;;-0.90;99.90;;;;;;5078446;28;20116;-29
2022/11/20 03:21:42;;;;;;;26.45;14.85;;;-0.90;99.90;;;;;;5080396;28;20032;-27
2022/11/20 03:24:07;;;;;;;25.27;15.80;;;-0.90;99.90;;;;;;5064873;28;20046;-28
2022/11/20 03:26:33;;;;;;;23.20;16.13;;;-0.90;99.90;;;;;;5086231;28;20094;-29
2022/11/20 03:29:01;;;;;;;22.10;15.18;;;-0.90;99.90;;;;;;5077786;28;20036;-27
2022/11/20 03:31:40;;;;;;;22.67;15.35;;;-0.90;99.90;;;;;;5076502;28;20036;-28
2022/11/20 03:34:07;;;;;;;22.13;15.68;;;-0.80;99.90;;;;;;5078736;28;20476;-29
2022/11/20 03:36:33;;;;;;;22.80;15.95;;;-0.80;99.90;;;;;;5081026;28;20108;-27
2022/11/20 03:38:59;;;;;;;24.58;15.40;;;-0.80;99.90;;;;;;5082140;28;20123;-28
2022/11/20 03:41:30;;;;;;;21.75;14.50;;;-0.80;99.90;;;;;;5080696;28;20037;-28
2022/11/20 03:44:02;;;;;;;21.05;15.68;;;-0.80;99.90;;;;;;5081991;28;20028;-27
2022/11/20 03:46:28;;;;;;;25.27;15.93;;;-0.80;99.90;;;;;;5083090;28;20067;-29
2022/11/20 03:48:54;;;;;;;21.08;14.43;;;-0.80;99.90;;;;;;5053701;28;20055;-28
2022/11/20 03:51:26;;;;;;;22.83;15.32;;;-0.80;99.90;;;;;;5083219;28;20053;-28
2022/11/20 03:53:53;;;;;;;23.40;14.43;;;-0.80;99.90;;;;;;5073325;28;20037;-27
2022/11/20 03:56:23;;;;;;;21.50;14.45;;;-0.80;99.90;;;;;;5071868;28;20066;-29
2022/11/20 03:58:49;;;;;;;20.85;14.75;;;-0.80;99.90;;;;;;5075042;28;20404;-28
2022/11/20 04:01:18;;;;;;;21.00;14.65;;;-0.80;99.90;;;;;;5072371;28;20040;-29
2022/11/20 04:03:45;;;;;;;22.88;14.98;;;-0.80;99.90;;;;;;5082183;28;20084;-27
2022/11/20 04:06:19;;;;;;;20.95;14.73;;;-0.80;99.90;;;;;;5079749;28;20036;-28
2022/11/20 04:08:45;;;;;;;23.00;15.52;;;-0.80;99.90;;;;;;5070642;28;20370;-31
2022/11/20 04:11:12;;;;;;;20.25;14.27;;;-0.80;99.90;;;;;;5087500;28;20043;-29
2022/11/20 04:13:38;;;;;;;23.65;16.02;;;-0.80;99.90;;;;;;5081818;28;20032;-28
2022/11/20 04:16:05;;;;;;;22.92;14.75;;;-0.80;99.90;;;;;;5084820;28;20123;-28
2022/11/20 04:18:31;;;;;;;24.02;14.57;;;-0.80;99.90;;;;;;5078673;28;20555;-28
2022/11/20 04:20:58;;;;;;;20.77;14.20;;;-0.80;99.90;;;;;;5077289;28;20111;-30
2022/11/20 04:23:24;;;;;;;18.33;13.38;;;-0.70;99.90;;;;;;5070325;28;20036;-29
2022/11/20 04:25:50;;;;;;;24.75;15.40;;;-0.70;99.90;;;;;;5078619;28;20525;-28
2022/11/20 04:28:16;;;;;;;24.08;14.85;;;-0.70;99.90;;;;;;5068033;28;20127;-29
2022/11/20 04:30:42;;;;;;;21.23;14.68;;;-0.70;99.90;;;;;;5078636;28;20169;-28
2022/11/20 04:33:07;;;;;;;21.80;15.48;;;-0.70;99.90;;;;;;5075723;28;20041;-27
2022/11/20 04:35:37;;;;;;;22.20;15.32;;;-0.70;99.90;;;;;;5091041;28;20060;-29
2022/11/20 04:38:03;;;;;;;24.65;16.42;;;-0.60;99.90;;;;;;5077815;28;20497;-28
2022/11/20 04:40:29;;;;;;;24.17;15.55;;;-0.60;99.90;;;;;;5068214;28;20141;-29
2022/11/20 04:42:55;;;;;;;22.63;15.18;;;-0.70;99.90;;;;;;5083883;28;20036;-30
2022/11/20 04:45:22;;;;;;;21.42;14.43;;;-0.70;99.90;;;;;;5079465;28;20456;-28
2022/11/20 04:47:48;;;;;;;21.50;14.38;;;-0.60;99.90;;;;;;5083200;28;20071;-29
2022/11/20 04:50:13;;;;;;;22.77;14.60;;;-0.60;99.90;;;;;;5065509;28;20133;-27
2022/11/20 04:52:39;;;;;;;20.15;13.98;;;-0.60;99.90;;;;;;5075409;28;20032;-27
2022/11/20 04:55:05;;;;;;;22.98;15.23;;;-0.60;99.90;;;;;;5079776;28;20084;-30
2022/11/20 04:57:31;;;;;;;22.73;15.70;;;-0.60;99.90;;;;;;5078558;28;20100;-28
2022/11/20 04:59:57;;;;;;;24.48;15.57;;;-0.60;99.90;;;;;;5068659;28;20044;-29
2022/11/20 05:02:22;;;;;;;19.65;14.15;;;-0.60;99.90;;;;;;5078805;28;20119;-29
2022/11/20 05:04:48;;;;;;;19.40;13.48;;;-0.60;99.90;;;;;;5077539;28;20024;-29
2022/11/20 05:07:14;;;;;;;20.70;14.65;;;-0.60;99.90;;;;;;5070161;28;20045;-29
2022/11/20 05:09:40;;;;;;;20.63;14.30;;;-0.60;99.90;;;;;;5075916;28;20040;-28
2022/11/20 05:12:08;;;;;;;20.73;14.73;;;-0.60;99.90;;;;;;5081290;28;20122;-28
2022/11/20 05:14:33;;;;;;;20.50;14.73;;;-0.50;99.90;;;;;;5067581;28;20033;-29
2022/11/20 05:16:59;;;;;;;24.15;15.23;;;-0.50;99.90;;;;;;5084521;28;20040;-28
2022/11/20 05:19:25;;;;;;;21.95;15.57;;;-0.50;99.90;;;;;;5080562;28;20072;-30
2022/11/20 05:21:50;;;;;;;20.98;15.05;;;-0.50;99.90;;;;;;5079094;28;20032;-28
2022/11/20 05:24:16;;;;;;;18.35;13.07;;;-0.50;99.90;;;;;;5078523;28;20042;-28
2022/11/20 05:26:42;;;;;;;23.63;14.95;;;-0.50;99.90;;;;;;5078143;28;20418;-29
2022/11/20 05:29:11;;;;;;;21.15;13.98;;;-0.50;99.90;;;;;;5078063;28;20047;-29
2022/11/20 05:31:38;;;;;;;21.23;14.95;;;-0.50;99.90;;;;;;5075969;28;20040;-31
2022/11/20 05:34:04;;;;;;;20.42;14.10;;;-0.50;99.90;;;;;;5069101;28;20457;-31
2022/11/20 05:36:30;;;;;;;20.67;14.60;;;-0.50;99.90;;;;;;5071190;28;20051;-29
2022/11/20 05:38:55;;;;;;;20.20;13.70;;;-0.50;99.90;;;;;;5066052;28;20111;-29
2022/11/20 05:41:21;;;;;;;23.15;15.90;;;-0.50;99.90;;;;;;5072285;28;20537;-28
2022/11/20 05:43:48;;;;;;;20.48;14.57;;;-0.60;99.90;;;;;;5069350;28;20025;-29
2022/11/20 05:46:15;;;;;;;19.23;13.52;;;-0.50;99.90;;;;;;5070208;28;20182;-29
2022/11/20 05:48:43;;;;;;;22.45;14.82;;;-0.50;99.90;;;;;;5082392;28;20093;-28
2022/11/20 05:51:11;;;;;;;19.50;13.95;;;-0.50;99.90;;;;;;5071538;28;20029;-28
2022/11/20 05:53:37;;;;;;;20.50;14.50;;;-0.50;99.90;;;;;;5053727;28;20275;-27
2022/11/20 05:56:09;;;;;;;18.58;13.65;;;-0.50;99.90;;;;;;5064645;28;20025;-27
2022/11/20 05:58:36;;;;;;;20.45;14.38;;;-0.50;99.90;;;;;;5071879;28;20047;-28
2022/11/20 06:01:09;;;;;;;21.85;15.18;;;-0.50;99.90;;;;;;5065767;28;20044;-27
2022/11/20 06:03:35;;;;;;;20.15;13.65;;;-0.50;99.90;;;;;;5072294;28;20416;-29
2022/11/20 06:06:02;;;;;;;20.35;14.18;;;-0.50;99.90;;;;;;5070907;28;20051;-29
2022/11/20 06:08:28;;;;;;;19.38;13.82;;;-0.50;99.90;;;;;;5055837;28;20567;-28
2022/11/20 06:10:54;;;;;;;21.48;14.52;;;-0.50;99.90;;;;;;5071281;28;20033;-28
2022/11/20 06:13:20;;;;;;;18.98;13.68;;;-0.50;99.90;;;;;;5071719;28;20517;-28
2022/11/20 06:15:52;;;;;;;19.77;13.40;;;-0.40;99.90;;;;;;5069861;28;20105;-28
2022/11/20 06:18:19;;;;;;;23.40;14.02;;;-0.40;99.90;;;;;;5071577;28;20086;-28
2022/11/20 06:20:46;;;;;;;21.10;14.25;;;-0.40;99.90;;;;;;5069069;28;20044;-29
2022/11/20 06:23:12;;;;;;;21.30;13.55;;;-0.40;99.90;;;;;;5070949;28;20044;-29
2022/11/20 06:25:39;;;;;;;22.60;14.90;;;-0.40;99.90;;;;;;5072206;28;20028;-29
2022/11/20 06:28:05;;;;;;;20.85;13.63;;;-0.40;99.90;;;;;;5052712;28;20037;-28
2022/11/20 06:30:30;;;;;;;19.67;13.88;;;-0.40;99.90;;;;;;5071867;28;20577;-28
2022/11/20 06:32:56;;;;;;;18.85;13.35;;;-0.40;99.90;;;;;;5071286;28;20037;-29
2022/11/20 06:35:22;;;;;;;18.27;13.15;;;-0.40;99.90;;;;;;5071258;28;20066;-28
2022/11/20 06:37:48;;;;;;;18.70;12.85;;;-0.40;99.90;;;;;;5066730;28;20541;-28
2022/11/20 06:40:14;;;;;;;20.00;13.43;;;-0.30;99.90;;;;;;5065851;28;20124;-30
2022/11/20 06:42:40;;;;;;;18.80;13.48;;;-0.30;99.90;;;;;;5050351;28;20032;-28
2022/11/20 06:45:06;;;;;;;18.40;13.05;;;-0.40;99.90;;;;;;5060550;28;20119;-28
2022/11/20 06:47:33;;;;;;;17.77;13.13;;;-0.40;99.90;;;;;;5065953;28;20048;-28
2022/11/20 06:49:58;;;;;;;18.45;13.27;;;-0.40;99.90;;;;;;5060931;28;20401;-29
2022/11/20 06:52:24;;;;;;;18.85;13.40;;;-0.40;99.90;;;;;;5066071;28;20041;-30
2022/11/20 06:54:50;;;;;;;17.90;14.15;;;-0.30;99.90;;;;;;5067451;28;20051;-28
2022/11/20 06:57:16;;;;;;;19.17;14.73;;;-0.30;99.90;;;;;;5068728;28;20041;-31
2022/11/20 06:59:41;;;;;;;17.90;13.18;;;-0.30;99.90;;;;;;5068674;28;20044;-29
2022/11/20 07:02:11;;;;;;;16.75;12.32;;;-0.30;99.90;;;;;;5067182;28;20044;-29
2022/11/20 07:04:38;;;;;;;16.88;11.75;;;-0.40;99.90;;;;;;5068706;28;20040;-28
2022/11/20 07:07:03;;;;;;;17.92;12.60;;;-0.40;99.90;;;;;;5061355;28;20379;-30
2022/11/20 07:09:29;;;;;;;18.00;13.95;;;-0.40;99.90;;;;;;5068748;28;20093;-29
2022/11/20 07:11:55;;;;;;;22.27;13.95;;;-0.40;99.90;;;;;;5067673;28;20165;-29
2022/11/20 07:14:21;;;;;;;19.35;13.48;;;-0.30;99.90;;;;;;5069857;28;20171;-29
2022/11/20 07:16:46;;;;;;;18.27;12.90;;;-0.30;99.90;;;;;;5069510;28;20032;-29
2022/11/20 07:19:15;;;;;;;21.08;12.77;;;-0.30;99.90;;;;;;5053685;28;20040;-29
2022/11/20 07:21:41;;;;;;;20.00;13.55;;;-0.30;99.90;;;;;;5067355;28;20043;-28
2022/11/20 07:24:07;;;;;;;17.55;12.65;;;-0.30;99.90;;;;;;5062571;28;20037;-30
2022/11/20 07:26:32;;;;;;;16.52;12.20;;;-0.30;99.90;;;;;;5069238;28;20501;-29
2022/11/20 07:28:58;;;;;;;17.33;12.30;;;-0.30;99.90;;;;;;5069116;28;20406;-30
2022/11/20 07:31:24;;;;;;;17.55;11.90;;;-0.20;99.90;;;;;;5064588;28;20048;-29
2022/11/20 07:33:49;;;;;;;18.25;12.63;;;-0.30;99.90;;;;;;5072442;28;20401;-28
2022/11/20 07:36:15;;;;;;;19.17;13.20;;;-0.20;99.90;;;;;;5060091;28;20037;-28
2022/11/20 07:38:41;;;;;;;17.77;12.98;;;-0.20;99.90;;;;;;5064732;28;20032;-28
2022/11/20 07:41:07;;;;;;;19.60;13.30;;;-0.20;99.90;;;;;;5066753;28;20052;-28
2022/11/20 07:43:32;;;;;;;20.20;15.23;;;-0.20;99.90;;;;;;5072427;28;20448;-28
2022/11/20 07:45:59;;;;;;;22.02;15.52;;;-0.30;99.90;;;;;;5076156;28;20089;-27
2022/11/20 07:48:25;;;;;;;18.48;15.20;;;-0.30;99.90;;;;;;5070809;28;20033;-28
2022/11/20 07:50:58;;;;;;;25.52;17.33;;;-0.30;99.90;;;;;;5072768;28;20040;-30
2022/11/20 07:53:25;;;;;;;21.38;15.68;;;-0.30;99.90;;;;;;5073560;28;20413;-30
2022/11/20 07:55:52;;;;;;;21.38;15.63;;;-0.20;99.90;;;;;;5071500;28;20098;-28
2022/11/20 07:58:19;;;;;;;20.85;16.05;;;-0.20;99.90;;;;;;5063747;28;20119;-30
2022/11/20 08:00:45;;;;;;;22.88;14.77;;;-0.20;99.90;;;;;;5067592;28;20036;-29
2022/11/20 08:03:11;;;;;;;21.95;14.68;;;-0.20;99.90;;;;;;5059720;28;20211;-31
2022/11/20 08:05:37;;;;;;;18.63;13.35;;;-0.20;99.90;;;;;;5075364;28;20047;-30
2022/11/20 08:08:03;;;;;;;18.80;13.63;;;-0.20;99.90;;;;;;5079219;28;20396;-29
2022/11/20 08:10:29;;;;;;;18.27;13.20;;;-0.20;99.90;;;;;;5068593;28;20071;-29
2022/11/20 08:15:40;;;;;;;18.75;13.63;;;-0.10;99.90;;;;;;5071773;28;20120;-29
2022/11/20 08:18:12;;;;;;;20.50;14.25;;;-0.10;99.90;;;;;;5064800;28;20090;-28
2022/11/20 08:20:38;;;;;;;18.55;13.55;;;-0.10;99.90;;;;;;5089090;28;20115;-27
2022/11/20 08:23:06;;;;;;;22.80;13.82;;;0.00;99.90;;;;;;5071175;28;20040;-29
2022/11/20 08:25:33;;;;;;;18.73;13.63;;;0.00;99.90;;;;;;5070905;28;20040;-27
2022/11/20 08:28:07;;;;;;;19.60;13.98;;;0.00;99.90;;;;;;5080034;28;20036;-28
2022/11/20 08:30:33;;;;;;;;;;;0.10;99.90;;;;;;5073166;28;20120;-27
2022/11/20 08:33:08;;;;;;;19.98;13.80;;;0.10;99.90;;;;;;5068885;28;19964;-28
2022/11/20 08:35:35;;;;;;;19.55;13.80;;;0.10;99.90;;;;;;5078664;28;20109;-28
2022/11/20 08:38:02;;;;;;;18.65;13.85;;;0.20;99.90;;;;;;5071382;28;20040;-27
2022/11/20 08:40:29;;;;;;;19.73;13.48;;;0.20;99.90;;;;;;5075889;28;20478;-31
2022/11/20 08:42:55;;;;;;;18.23;13.88;;;0.20;99.90;;;;;;5051687;28;20574;-29
2022/11/20 08:45:20;;;;;;;21.70;14.85;;;0.30;99.90;;;;;;5070308;28;20116;-30
2022/11/20 08:47:46;;;;;;;19.52;14.25;;;0.30;99.90;;;;;;5071119;28;20389;-30
2022/11/20 08:50:14;;;;;;;18.80;14.40;;;0.30;99.90;;;;;;5062657;28;20039;-27
2022/11/20 08:52:40;;;;;;;19.25;14.45;;;0.30;99.90;;;;;;5066789;28;20208;-27
2022/11/20 08:55:07;;;;;;;18.50;14.70;;;0.40;99.90;;;;;;5074339;28;20114;-28
2022/11/20 08:57:34;;;;;;;22.52;15.93;;;0.60;99.90;;;;;;5072287;28;20071;-28
2022/11/20 09:00:00;;;;;;;18.52;14.02;;;0.60;99.90;;;;;;5079221;28;20032;-29
2022/11/20 09:02:26;;;;;;;18.80;14.90;;;0.70;99.90;;;;;;5073981;28;20044;-28
2022/11/20 09:04:53;;;;;;;20.40;14.32;;;0.80;99.90;;;;;;5049525;28;20032;-29
2022/11/20 09:07:19;;;;;;;20.17;14.85;;;0.90;99.90;;;;;;5062497;28;20092;-28
2022/11/20 09:09:45;;;;;;;21.23;15.57;;;0.90;99.90;;;;;;5073296;28;20528;-28
2022/11/20 09:12:15;;;;;;;19.42;15.40;;;1.10;99.90;;;;;;5066272;28;20047;-29
2022/11/20 09:14:43;;;;;;;22.95;16.48;;;1.10;99.90;;;;;;5065140;28;20068;-28
2022/11/20 09:17:15;;;;;;;19.80;14.82;;;1.30;99.90;;;;;;5065621;28;20544;-29
2022/11/20 09:19:41;;;;;;;20.35;14.98;;;1.50;99.90;;;;;;5067112;28;20112;-28
2022/11/20 09:22:07;;;;;;;18.58;13.43;;;1.70;99.90;;;;;;5065711;28;20385;-30
2022/11/20 09:24:33;;;;;;;17.52;13.43;;;1.90;99.90;;;;;;5081588;28;20501;-29
2022/11/20 09:27:01;;;;;;;20.13;15.05;;;2.60;99.90;;;;;;5074745;28;20072;-29
2022/11/20 09:29:27;;;;;;;21.02;14.88;;;3.40;99.90;;;;;;5047830;28;20379;-28
2022/11/20 09:31:56;;;;;;;18.27;13.38;;;3.90;99.90;;;;;;5077442;28;20080;-30
2022/11/20 09:34:22;;;;;;;18.00;13.95;;;4.20;99.90;;;;;;5061077;28;20436;-29
2022/11/20 09:36:49;;;;;;;19.42;13.10;;;4.80;99.90;;;;;;5067629;28;20131;-31
2022/11/20 09:39:15;;;;;;;19.35;13.55;;;5.10;99.90;;;;;;5061939;28;20032;-32
2022/11/20 09:41:59;;;;;;;17.20;13.25;;;5.50;99.90;;;;;;5069764;28;20485;-30
2022/11/20 09:44:32;;;;;;;16.83;13.70;;;6.00;99.90;;;;;;5060415;28;20068;-29
2022/11/20 09:47:16;;;;;;;16.15;13.10;;;6.00;99.90;;;;;;5059748;28;20032;-30
2022/11/20 09:50:13;;;;;;;18.63;13.38;;;5.90;99.90;;;;;;5059045;28;20040;-29
2022/11/20 09:53:14;;;;;;;15.70;13.60;;;6.60;99.90;;;;;;5071781;28;20071;-29
2022/11/20 09:55:39;;;;;;;16.50;12.48;;;7.30;99.90;;;;;;5043548;28;20055;-31
2022/11/20 09:58:07;;;;;;;15.75;12.32;;;7.70;99.90;;;;;;5062975;28;20037;-30
2022/11/20 10:00:36;;;;;;;17.05;12.82;;;8.00;99.90;;;;;;5052714;28;20059;-31
2022/11/20 10:03:37;;;;;;;14.95;12.95;;;8.10;99.90;;;;;;5068133;28;20399;-30
2022/11/20 10:06:08;;;;;;;17.00;13.18;;;8.30;99.90;;;;;;5057503;28;20107;-30
2022/11/20 10:08:58;;;;;;;15.18;12.32;;;8.60;99.90;;;;;;5064393;28;20127;-30
2022/11/20 10:11:52;;;;;;;14.50;11.82;;;9.30;99.90;;;;;;5065051;28;20040;-30
2022/11/20 10:14:58;;;;;;;13.30;11.77;;;9.70;99.90;;;;;;5047546;28;20123;-31
2022/11/20 10:17:46;;;;;;;13.40;11.40;;;10.10;99.90;;;;;;5057169;28;20157;-31
2022/11/20 10:20:29;;;;;;;13.13;11.73;;;10.70;99.90;;;;;;5071285;28;20028;-31
2022/11/20 10:23:27;;;;;;;13.13;11.70;;;10.80;99.90;;;;;;5067844;28;20041;-32
2022/11/20 10:26:03;;;;;;;10.57;9.57;;;10.90;99.90;;;;;;5068017;28;20502;-30
2022/11/20 10:28:48;;;;;;;11.45;10.25;;;11.10;99.90;;;;;;5070478;28;20165;-30
2022/11/20 10:31:25;;;;;;;44.95;31.40;;;11.40;99.90;;;;;;5067926;28;20127;-30
2022/11/20 10:33:53;;;;;;;11.48;10.27;;;12.10;94.10;;;;;;5069840;28;20463;-30
2022/11/20 10:36:26;;;;;;;11.70;10.50;;;12.40;93.80;;;;;;5069684;28;20064;-30
2022/11/20 10:39:03;;;;;;;18.20;15.38;;;12.30;71.50;;;;;;5071413;28;20032;-30
2022/11/20 10:41:36;;;;;;;11.88;9.13;;;12.50;79.50;;;;;;5044293;28;20044;-30
2022/11/20 10:44:09;;;;;;;11.48;10.35;;;12.70;82.00;;;;;;5073660;28;20032;-31
2022/11/20 10:46:48;;;;;;;10.15;9.18;;;12.80;80.20;;;;;;5069089;28;20037;-32
2022/11/20 10:49:17;;;;;;;11.98;10.85;;;13.30;68.60;;;;;;5074874;28;20288;-30
2022/11/20 10:52:04;;;;;;;10.98;9.82;;;13.80;78.00;;;;;;5062304;28;20041;-31
2022/11/20 10:54:50;;;;;;;10.80;9.80;;;14.00;66.90;;;;;;5066669;28;20037;-31
2022/11/20 10:57:54;;;;;;;14.00;12.48;;;14.00;71.00;;;;;;5054388;28;20048;-30
2022/11/20 11:00:20;;;;;;;8.30;7.60;;;13.20;55.80;;;;;;5075714;28;20037;-31
2022/11/20 11:02:52;;;;;;;8.13;7.28;;;12.10;69.10;;;;;;5075690;28;20275;-32
2022/11/20 11:05:37;;;;;;;9.73;8.73;;;11.20;66.40;;;;;;5075359;28;20057;-31
2022/11/20 11:08:05;;;;;;;9.07;8.18;;;10.60;58.60;;;;;;5064628;28;20043;-31
2022/11/20 11:10:52;;;;;;;12.18;8.57;;;10.70;72.40;;;;;;5068586;28;20127;-31
2022/11/20 11:13:23;;;;;;;8.95;8.07;;;10.80;55.40;;;;;;5069001;28;20086;-32
2022/11/20 11:15:49;;;;;;;9.60;8.60;;;10.70;63.90;;;;;;5070650;28;20546;-31
2022/11/20 11:18:30;;;;;;;11.40;10.25;;;10.60;69.10;;;;;;5075462;28;20068;-33
2022/11/20 11:20:57;;;;;;;10.38;8.95;;;10.10;61.60;;;;;;5081680;28;20036;-37
2022/11/20 11:23:36;;;;;;;9.05;8.15;;;9.70;72.70;;;;;;5080427;28;20029;-32
2022/11/20 11:26:04;;;;;;;8.85;7.95;;;9.20;65.10;;;;;;5073003;28;20044;-31
2022/11/20 11:28:31;;;;;;;10.55;9.30;;;8.70;74.70;;;;;;5059238;28;20048;-32
2022/11/20 11:30:56;;;;;;;11.23;8.77;;;8.40;79.20;;;;;;5061345;28;20048;-31
2022/11/20 11:33:30;;;;;;;10.35;9.32;;;8.20;79.30;;;;;;5068531;28;20029;-30
2022/11/20 11:36:00;;;;;;;8.85;7.95;;;8.00;71.30;;;;;;5060958;28;20052;-31
2022/11/20 11:38:39;;;;;;;10.48;8.35;;;8.10;80.00;;;;;;5072536;28;20551;-31
2022/11/20 11:41:09;;;;;;;11.25;9.57;;;7.80;73.10;;;;;;5070337;28;20040;-30
2022/11/20 11:46:20;;;;;;;11.98;10.07;;;7.50;86.50;;;;;;5069171;28;20515;-30
2022/11/20 11:49:18;;;;;;;13.13;11.23;;;7.30;92.40;;;;;;5072792;28;20116;-30
2022/11/20 11:52:05;;;;;;;18.20;12.93;;;7.90;81.10;;;;;;5071435;28;20079;-31
2022/11/20 11:54:41;;;;;;;12.18;9.93;;;8.10;88.10;;;;;;5064620;28;20048;-30
2022/11/20 11:57:45;;;;;;;11.68;9.32;;;9.00;91.90;;;;;;5067921;28;20098;-31
2022/11/20 12:00:18;;;;;;;9.43;8.32;;;9.70;72.60;;;;;;5083551;28;20037;-30
2022/11/20 12:02:44;;;;;;;10.20;9.13;;;10.30;73.00;;;;;;5058571;28;20325;-30
2022/11/20 12:05:38;;;;;;;10.75;8.82;;;11.20;72.40;;;;;;5089649;28;20047;-30
2022/11/20 12:08:21;;;;;;;;;;;10.90;58.00;;;;;;5067414;28;20073;-29
2022/11/20 12:10:53;;;;;;;8.98;8.07;;;10.40;51.30;;;;;;5065309;28;20405;-29
2022/11/20 12:13:32;;;;;;;11.23;9.18;;;10.50;64.80;;;;;;5065963;28;20040;-29
2022/11/20 12:15:59;;;;;;;11.13;9.98;;;10.70;69.00;;;;;;5070784;28;20044;-31
2022/11/20 12:18:27;;;;;;;9.85;8.85;;;10.70;74.50;;;;;;5070144;28;20044;-31
2022/11/20 12:21:05;;;;;;;10.82;9.68;;;10.70;74.50;;;;;;5073186;28;20028;-30
2022/11/20 12:23:37;;;;;;;11.20;9.52;;;10.60;66.10;;;;;;5081356;28;20032;-31
2022/11/20 12:26:13;;;;;;;12.27;9.70;;;10.60;69.00;;;;;;5069925;28;20166;-29
2022/11/20 12:28:56;;;;;;;12.50;9.18;;;10.60;70.00;;;;;;5093495;28;20458;-29
2022/11/20 12:31:35;;;;;;;11.93;10.18;;;10.30;61.70;;;;;;5074557;28;20134;-30
2022/11/20 12:34:32;;;;;;;12.32;10.70;;;9.60;60.50;;;;;;5071753;28;20051;-29
2022/11/20 12:37:24;;;;;;;11.70;10.50;;;8.70;63.30;;;;;;5073312;28;20383;-29
2022/11/20 12:39:50;;;;;;;11.20;9.50;;;8.60;69.20;;;;;;5056588;28;20049;-31
2022/11/20 12:45:43;;;;;;;10.50;9.32;;;8.20;76.70;;;;;;5053834;28;20048;-30
2022/11/20 12:48:28;;;;;;;13.23;11.15;;;7.90;75.80;;;;;;5071830;28;20036;-29
2022/11/20 12:51:09;;;;;;;;;;;7.60;85.20;;;;;;5064403;28;20564;-30
2022/11/20 12:54:11;;;;;;;14.75;10.57;;;7.30;76.60;;;;;;5090287;28;19917;-32
2022/11/20 12:56:49;;;;;;;12.13;10.27;;;6.90;91.90;;;;;;5062910;28;20040;-36
2022/11/20 12:59:39;;;;;;;17.02;12.90;;;6.60;95.70;;;;;;5056202;28;20041;-30